Time;durP1;ratioP1;P1;durP2;ratioP2;P2;SDS_P1;SDS_P2;PMS_P1;PMS_P2;Temp;Humidity;BMP_temperature;BMP_pressure;BME280_temperature;BME280_humidity;BME280_pressure;Samples;Min_cycle;Max_cycle;Signal;HPM_P1;HPM_P2
2024/03/31 00:02:15;;;;;;;0.30;0.20;;;;;;;11.49;100.00;98668.56;4927831;29;20228;-47
2024/03/31 00:04:41;;;;;;;0.30;0.20;;;;;;;11.58;100.00;98668.03;4943984;28;20233;-47
2024/03/31 00:07:07;;;;;;;0.30;0.20;;;;;;;11.35;100.00;98666.69;4896408;29;20634;-47
2024/03/31 00:09:32;;;;;;;0.30;0.20;;;;;;;11.56;100.00;98659.28;4933768;29;20228;-47
2024/03/31 00:11:58;;;;;;;0.30;0.20;;;;;;;11.50;100.00;98664.94;4923285;29;20225;-47
2024/03/31 00:14:25;;;;;;;0.30;0.20;;;;;;;11.52;100.00;98661.28;4925980;29;20251;-47
2024/03/31 00:16:50;;;;;;;0.63;0.63;;;;;;;11.55;100.00;98662.91;4924027;29;20217;-47
2024/03/31 00:19:16;;;;;;;0.30;0.20;;;;;;;11.67;100.00;98661.31;4922164;29;20494;-47
2024/03/31 00:21:41;;;;;;;0.30;0.20;;;;;;;11.55;100.00;98663.75;4936606;29;20585;-47
2024/03/31 00:24:07;;;;;;;0.30;0.20;;;;;;;11.68;100.00;98657.72;4917640;29;20327;-46
2024/03/31 00:26:32;;;;;;;0.30;0.20;;;;;;;11.62;100.00;98652.72;4929383;29;20212;-47
2024/03/31 00:28:58;;;;;;;0.30;0.20;;;;;;;11.61;100.00;98651.88;4930542;29;20752;-48
2024/03/31 00:31:24;;;;;;;0.30;0.20;;;;;;;11.68;100.00;98650.59;4926998;29;20303;-48
2024/03/31 00:33:49;;;;;;;0.30;0.20;;;;;;;11.53;100.00;98649.69;4925560;29;20718;-47
2024/03/31 00:36:15;;;;;;;0.30;0.20;;;;;;;11.65;100.00;98653.44;4926781;29;20232;-46
2024/03/31 00:38:42;;;;;;;0.30;0.20;;;;;;;11.66;100.00;98655.16;4930255;29;20217;-46
2024/03/31 00:41:07;;;;;;;0.30;0.20;;;;;;;11.73;100.00;98658.28;4930675;29;20461;-46
2024/03/31 00:43:33;;;;;;;0.30;0.20;;;;;;;11.72;100.00;98657.44;4922773;29;20913;-46
2024/03/31 00:45:58;;;;;;;0.30;0.20;;;;;;;11.62;100.00;98664.22;4933895;29;20216;-46
2024/03/31 00:48:24;;;;;;;0.30;0.20;;;;;;;11.71;100.00;98662.84;4920662;29;20267;-47
2024/03/31 00:50:49;;;;;;;0.30;0.20;;;;;;;11.71;100.00;98674.34;4932282;29;20666;-47
2024/03/31 00:53:15;;;;;;;0.30;0.20;;;;;;;11.36;100.00;98667.56;4931764;29;20220;-46
2024/03/31 00:55:41;;;;;;;0.30;0.20;;;;;;;11.55;100.00;98669.06;4923040;29;20296;-47
2024/03/31 00:58:06;;;;;;;1.80;1.77;;;;;;;11.29;100.00;98667.06;4925964;29;20303;-47
2024/03/31 01:00:33;;;;;;;0.30;0.20;;;;;;;11.58;100.00;98668.88;4922143;29;20670;-46
2024/03/31 01:02:59;;;;;;;0.57;0.57;;;;;;;11.58;100.00;98668.03;4921369;29;20295;-47
2024/03/31 01:05:24;;;;;;;0.30;0.20;;;;;;;11.59;100.00;98672.41;4931487;29;20971;-47
2024/03/31 01:07:50;;;;;;;0.30;0.20;;;;;;;11.72;100.00;98668.06;4923157;29;20272;-47
2024/03/31 01:10:17;;;;;;;0.30;0.20;;;;;;;11.53;100.00;98673.63;4933026;29;20299;-47
2024/03/31 01:12:43;;;;;;;0.30;0.20;;;;;;;11.74;100.00;98678.63;4924241;29;20224;-47
2024/03/31 01:15:09;;;;;;;0.30;0.20;;;;;;;11.63;100.00;98681.91;4930427;29;20463;-47
2024/03/31 01:17:34;;;;;;;0.30;0.20;;;;;;;11.58;100.00;98682.19;4925280;29;20468;-47
2024/03/31 01:20:00;;;;;;;0.30;0.20;;;;;;;11.68;100.00;98684.31;4931304;29;20220;-47
2024/03/31 01:22:26;;;;;;;0.30;0.20;;;;;;;11.64;100.00;98680.09;4929999;29;20303;-47
2024/03/31 01:24:53;;;;;;;0.30;0.30;;;;;;;11.57;100.00;98688.47;4930402;29;20536;-47
2024/03/31 01:27:19;;;;;;;0.30;0.20;;;;;;;11.50;100.00;98686.25;4933626;29;20227;-47
2024/03/31 01:29:44;;;;;;;0.30;0.20;;;;;;;11.61;100.00;98688.28;4922825;29;20469;-47
2024/03/31 01:32:09;;;;;;;0.30;0.20;;;;;;;11.65;100.00;98672.06;4926348;29;20295;-47
2024/03/31 01:34:35;;;;;;;0.97;0.97;;;;;;;11.53;100.00;98676.28;4935386;29;20241;-48
2024/03/31 01:37:01;;;;;;;0.30;0.20;;;;;;;11.58;100.00;98682.19;4933884;29;20235;-46
2024/03/31 01:39:27;;;;;;;0.30;0.20;;;;;;;11.47;100.00;98681.09;4923552;29;20828;-47
2024/03/31 01:41:52;;;;;;;0.30;0.20;;;;;;;11.53;100.00;98676.28;4929279;29;20359;-47
2024/03/31 01:44:18;;;;;;;0.30;0.20;;;;;;;11.67;100.00;98671.97;4932231;29;20306;-47
2024/03/31 01:46:43;;;;;;;0.30;0.20;;;;;;;11.75;100.00;98675.88;4922703;29;20742;-47
2024/03/31 01:49:09;;;;;;;0.30;0.20;;;;;;;11.86;100.00;98678.78;4929023;29;20220;-47
2024/03/31 01:51:34;;;;;;;0.30;0.20;;;;;;;11.93;100.00;98684.63;4926288;29;20264;-47
2024/03/31 01:54:00;;;;;;;0.30;0.20;;;;;;;11.86;100.00;98684.13;4922282;29;20633;-47
2024/03/31 01:56:25;;;;;;;0.30;0.20;;;;;;;11.79;100.00;98682.78;4924446;29;20720;-46
2024/03/31 01:58:51;;;;;;;1.13;1.13;;;;;;;11.86;100.00;98683.25;4928325;29;20263;-46
2024/03/31 02:01:16;;;;;;;0.30;0.20;;;;;;;11.93;100.00;98683.75;4918664;29;20231;-47
2024/03/31 02:03:42;;;;;;;0.30;0.20;;;;;;;11.92;100.00;98677.56;4922425;29;20295;-47
2024/03/31 02:06:08;;;;;;;0.30;0.20;;;;;;;11.72;100.00;98681.38;4924595;29;20224;-46
2024/03/31 02:08:34;;;;;;;0.30;0.20;;;;;;;11.67;100.00;98690.59;4928725;29;20208;-48
2024/03/31 02:11:00;;;;;;;0.30;0.20;;;;;;;11.50;100.00;98687.09;4920546;29;20980;-47
2024/03/31 02:13:25;;;;;;;0.30;0.20;;;;;;;11.67;100.00;98688.78;4924201;29;20322;-46
2024/03/31 02:15:51;;;;;;;0.30;0.20;;;;;;;11.77;100.00;98683.75;4923100;29;20236;-47
2024/03/31 02:18:16;;;;;;;0.30;0.20;;;;;;;11.64;100.00;98688.09;4923094;29;20728;-47
2024/03/31 02:20:43;;;;;;;0.30;0.20;;;;;;;11.75;100.00;98693.66;4931065;29;20221;-48
2024/03/31 02:23:08;;;;;;;0.30;0.20;;;;;;;11.69;100.00;98694.03;4927772;29;20658;-47
2024/03/31 02:25:34;;;;;;;1.03;1.03;;;;;;;11.74;100.00;98687.47;4931053;29;20456;-48
2024/03/31 02:27:59;;;;;;;0.30;0.20;;;;;;;11.76;100.00;98685.56;4929020;29;20741;-47
2024/03/31 02:30:25;;;;;;;0.30;0.20;;;;;;;11.82;100.00;98687.06;4932281;29;20251;-47
2024/03/31 02:32:50;;;;;;;0.30;0.20;;;;;;;11.86;100.00;98677.94;4919540;29;20580;-47
2024/03/31 02:35:16;;;;;;;0.30;0.20;;;;;;;11.78;100.00;98686.31;4921530;29;20248;-47
2024/03/31 02:37:41;;;;;;;0.30;0.20;;;;;;;11.76;100.00;98682.91;4930859;29;20216;-47
2024/03/31 02:40:07;;;;;;;1.17;1.07;;;;;;;11.73;100.00;98690.22;4934298;29;20303;-47
2024/03/31 02:42:33;;;;;;;0.30;0.20;;;;;;;11.63;100.00;98683.72;4931842;29;20302;-47
2024/03/31 02:44:58;;;;;;;0.30;0.20;;;;;;;11.61;100.00;98682.97;4925176;29;20236;-47
2024/03/31 02:47:24;;;;;;;0.30;0.20;;;;;;;11.48;100.00;98677.50;4928531;29;20220;-47
2024/03/31 02:49:50;;;;;;;0.30;0.20;;;;;;;11.52;100.00;98666.59;4932084;29;20220;-47
2024/03/31 02:52:15;;;;;;;0.30;0.20;;;;;;;11.46;100.00;98660.75;4919915;29;20507;-46
2024/03/31 02:54:41;;;;;;;0.30;0.20;;;;;;;11.51;100.00;98656.91;4933308;29;20240;-48
2024/03/31 02:57:06;;;;;;;0.30;0.20;;;;;;;11.51;100.00;98661.34;4922768;29;20220;-46
2024/03/31 02:59:32;;;;;;;0.30;0.20;;;;;;;11.60;100.00;98655.50;4921662;29;20220;-47
2024/03/31 03:01:58;;;;;;;0.30;0.20;;;;;;;11.48;100.00;98653.53;4921182;29;20601;-46
2024/03/31 03:04:23;;;;;;;2.37;2.20;;;;;;;11.53;100.00;98647.03;4928930;29;20235;-46
2024/03/31 03:06:49;;;;;;;0.30;0.20;;;;;;;11.58;100.00;98642.28;4932011;29;20279;-47
2024/03/31 03:09:14;;;;;;;0.30;0.20;;;;;;;11.57;100.00;98640.56;4922220;29;20280;-48
2024/03/31 03:11:40;;;;;;;0.30;0.20;;;;;;;11.54;100.00;98634.56;4932681;29;20224;-46
2024/03/31 03:14:05;;;;;;;0.30;0.20;;;;;;;11.35;100.00;98640.09;4926973;29;20240;-47
2024/03/31 03:16:31;;;;;;;0.30;0.20;;;;;;;11.35;100.00;98639.25;4931795;29;20236;-47
2024/03/31 03:18:56;;;;;;;0.30;0.20;;;;;;;11.41;100.00;98637.09;4923210;29;20216;-47
2024/03/31 03:21:22;;;;;;;0.30;0.20;;;;;;;11.22;100.00;98626.66;4927022;29;20295;-46
2024/03/31 03:23:50;;;;;;;0.30;0.20;;;;;;;11.07;100.00;98627.53;4927083;29;20251;-46
2024/03/31 03:26:15;;;;;;;0.30;0.20;;;;;;;11.21;100.00;98616.09;4927163;29;20456;-47
2024/03/31 03:28:41;;;;;;;0.30;0.20;;;;;;;11.25;100.00;98612.34;4922259;29;20212;-46
2024/03/31 03:31:06;;;;;;;1.43;1.43;;;;;;;11.24;100.00;98602.66;4927607;29;20248;-47
2024/03/31 03:33:32;;;;;;;0.30;0.20;;;;;;;11.22;100.00;98600.06;4931537;29;20247;-46
2024/03/31 03:36:02;;;;;;;0.30;0.20;;;;;;;11.35;100.00;98596.69;4932028;29;20234;-46
2024/03/31 03:38:27;;;;;;;0.30;0.20;;;;;;;11.35;100.00;98607.31;4925919;29;20209;-47
2024/03/31 03:40:53;;;;;;;0.30;0.20;;;;;;;11.36;100.00;98593.94;4930064;29;20506;-46
2024/03/31 03:43:18;;;;;;;0.30;0.20;;;;;;;11.33;100.00;98594.13;4933432;29;20565;-46
2024/03/31 03:45:45;;;;;;;2.83;2.73;;;;;;;11.41;100.00;98594.53;4933683;29;20223;-46
2024/03/31 03:48:11;;;;;;;0.30;0.20;;;;;;;11.36;100.00;98588.59;4927402;29;20216;-47
2024/03/31 03:50:37;;;;;;;0.40;0.30;;;;;;;11.38;100.00;98585.88;4917880;29;20431;-47
2024/03/31 03:53:04;;;;;;;0.30;0.20;;;;;;;11.45;100.00;98587.22;4924019;29;20315;-48
2024/03/31 03:55:30;;;;;;;0.30;0.20;;;;;;;11.40;100.00;98586.66;4923005;29;20673;-47
2024/03/31 03:57:55;;;;;;;0.30;0.20;;;;;;;11.45;100.00;98593.41;4932335;29;20616;-47
2024/03/31 04:00:21;;;;;;;0.30;0.20;;;;;;;11.42;100.00;98595.38;4919691;29;20220;-47
2024/03/31 04:02:50;;;;;;;0.30;0.20;;;;;;;11.21;100.00;98600.16;4929518;29;20703;-48
2024/03/31 04:05:15;;;;;;;0.30;0.20;;;;;;;11.22;100.00;98596.53;4912194;29;20288;-47
2024/03/31 04:07:41;;;;;;;0.30;0.20;;;;;;;11.21;100.00;98605.47;4930221;29;20452;-47
2024/03/31 04:10:06;;;;;;;0.30;0.20;;;;;;;11.21;100.00;98594.84;4936715;29;20272;-47
2024/03/31 04:12:32;;;;;;;0.30;0.20;;;;;;;11.17;100.00;98590.66;4931539;29;20291;-48
2024/03/31 04:15:00;;;;;;;0.30;0.20;;;;;;;11.25;100.00;98577.78;4934908;29;20905;-47
2024/03/31 04:17:25;;;;;;;47.20;18.30;;;;;;;11.12;100.00;98577.63;4922306;29;20220;-47
2024/03/31 04:19:51;;;;;;;0.30;0.20;;;;;;;11.18;100.00;98587.03;4930063;29;20549;-47
2024/03/31 04:22:16;;;;;;;0.30;0.20;;;;;;;11.20;100.00;98603.75;4928881;29;20263;-47
2024/03/31 04:24:42;;;;;;;0.30;0.20;;;;;;;11.37;100.00;98595.63;4936584;29;20659;-46
2024/03/31 04:27:07;;;;;;;0.30;0.20;;;;;;;11.24;100.00;98587.56;4931801;29;20216;-47
2024/03/31 04:29:33;;;;;;;0.30;0.20;;;;;;;11.01;100.00;98593.34;4936821;29;20224;-47
2024/03/31 04:31:58;;;;;;;0.30;0.20;;;;;;;11.31;100.00;98597.81;4926858;29;20228;-47
2024/03/31 04:34:30;;;;;;;0.30;0.20;;;;;;;11.28;100.00;98601.53;4914164;29;20311;-47
2024/03/31 04:36:57;;;;;;;11.97;4.63;;;;;;;10.98;100.00;98596.19;4930863;29;20212;-47
2024/03/31 04:39:24;;;;;;;1.33;1.33;;;;;;;11.35;100.00;98596.69;4924895;29;20543;-47
2024/03/31 04:41:52;;;;;;;0.30;0.20;;;;;;;11.41;100.00;98599.00;4933641;29;20982;-47
2024/03/31 04:44:18;;;;;;;0.30;0.20;;;;;;;11.46;100.00;98596.91;4934576;29;20492;-47
2024/03/31 04:46:46;;;;;;;0.43;0.40;;;;;;;11.35;100.00;98596.69;4926910;29;20457;-47
2024/03/31 04:49:13;;;;;;;0.77;0.77;;;;;;;11.20;100.00;98578.03;4925831;29;20223;-47
2024/03/31 04:51:39;;;;;;;0.30;0.20;;;;;;;11.06;100.00;98569.13;4919838;29;20464;-47
2024/03/31 04:54:05;;;;;;;0.30;0.20;;;;;;;10.93;100.00;98571.66;4924783;29;20484;-48
2024/03/31 04:56:30;;;;;;;0.30;0.20;;;;;;;11.16;100.00;98567.66;4930810;29;20496;-47
2024/03/31 04:58:56;;;;;;;0.30;0.20;;;;;;;11.00;100.00;98565.03;4935479;29;20221;-47
2024/03/31 05:01:22;;;;;;;0.30;0.20;;;;;;;11.17;100.00;98572.88;4919601;29;20264;-46
2024/03/31 05:03:47;;;;;;;0.30;0.20;;;;;;;11.32;100.00;98575.59;4925779;29;20519;-47
2024/03/31 05:06:13;;;;;;;0.40;0.30;;;;;;;11.30;100.00;98567.72;4933998;29;20212;-46
2024/03/31 05:08:38;;;;;;;0.30;0.20;;;;;;;11.34;100.00;98568.38;4924016;29;20358;-47
2024/03/31 05:11:04;;;;;;;0.30;0.20;;;;;;;11.30;100.00;98565.03;4930948;29;20226;-47
2024/03/31 05:13:29;;;;;;;0.30;0.20;;;;;;;11.06;100.00;98563.81;4940104;23;20236;-50
2024/03/31 05:16:02;;;;;;;0.30;0.20;;;;;;;11.10;100.00;98560.03;4992085;28;20245;-50
2024/03/31 05:18:28;;;;;;;0.30;0.20;;;;;;;11.11;100.00;98559.09;4993170;28;20687;-49
2024/03/31 05:21:02;;;;;;;0.30;0.20;;;;;;;11.22;100.00;98552.19;4993049;28;21056;-49
2024/03/31 05:23:28;;;;;;;0.30;0.20;;;;;;;11.37;100.00;98557.53;4993436;28;20440;-48
2024/03/31 05:25:58;;;;;;;0.30;0.20;;;;;;;11.29;100.00;98566.00;4978327;28;20452;-50
2024/03/31 05:28:24;;;;;;;0.30;0.20;;;;;;;11.37;100.00;98568.19;4993248;28;20458;-50
2024/03/31 05:30:50;;;;;;;0.30;0.20;;;;;;;11.32;100.00;98559.63;4991642;28;20467;-48
2024/03/31 05:33:16;;;;;;;0.30;0.20;;;;;;;11.33;100.00;98559.53;4990777;28;20628;-48
2024/03/31 05:35:43;;;;;;;0.30;0.20;;;;;;;11.34;100.00;98563.91;4992988;28;20246;-48
2024/03/31 05:38:09;;;;;;;0.30;0.20;;;;;;;11.45;100.00;98557.94;4992775;28;20528;-50
2024/03/31 05:40:39;;;;;;;0.30;0.20;;;;;;;11.49;100.00;98570.13;4989629;28;20477;-49
2024/03/31 05:43:05;;;;;;;0.30;0.20;;;;;;;11.57;100.00;98567.84;4989678;28;20461;-48
2024/03/31 05:45:30;;;;;;;0.30;0.20;;;;;;;11.59;100.00;98568.63;4992498;28;20477;-49
2024/03/31 05:47:56;;;;;;;0.30;0.20;;;;;;;11.65;100.00;98576.25;4992669;28;20516;-48
2024/03/31 05:50:22;;;;;;;0.30;0.20;;;;;;;11.62;100.00;98578.22;4988767;28;20258;-49
2024/03/31 05:52:48;;;;;;;0.30;0.20;;;;;;;11.42;100.00;98580.28;4983339;28;20222;-49
2024/03/31 05:55:13;;;;;;;0.30;0.20;;;;;;;11.44;100.00;98575.72;4992107;28;20600;-48
2024/03/31 05:57:39;;;;;;;0.30;0.20;;;;;;;11.41;100.00;98586.56;5008682;28;20217;-49
2024/03/31 06:00:05;;;;;;;0.30;0.20;;;;;;;11.53;100.00;98585.81;4993314;28;20301;-49
2024/03/31 06:02:30;;;;;;;0.30;0.20;;;;;;;11.60;100.00;98591.63;4984796;28;20679;-49
2024/03/31 06:04:58;;;;;;;0.30;0.20;;;;;;;11.57;100.00;98583.81;4978279;28;20561;-49
2024/03/31 06:07:24;;;;;;;0.30;0.20;;;;;;;11.49;100.00;98586.06;4984592;28;20206;-50
2024/03/31 06:09:50;;;;;;;0.30;0.20;;;;;;;11.50;100.00;98578.00;4976863;28;20975;-48
2024/03/31 06:12:16;;;;;;;0.30;0.20;;;;;;;11.60;100.00;98567.66;4983534;28;20462;-49
2024/03/31 06:14:41;;;;;;;0.30;0.20;;;;;;;11.46;100.00;98570.31;4991502;28;20313;-49
2024/03/31 06:17:07;;;;;;;0.30;0.20;;;;;;;11.54;100.00;98568.91;5007461;28;20218;-49
2024/03/31 06:19:32;;;;;;;0.30;0.20;;;;;;;11.61;100.00;98581.81;4991422;28;20210;-48
2024/03/31 06:21:58;;;;;;;0.30;0.20;;;;;;;11.72;100.00;98587.38;4986542;28;20721;-48
2024/03/31 06:24:24;;;;;;;0.30;0.20;;;;;;;11.77;100.00;98595.91;4978808;28;20242;-48
2024/03/31 06:26:49;;;;;;;0.30;0.20;;;;;;;11.68;100.00;98600.00;5007771;28;20977;-48
2024/03/31 06:29:14;;;;;;;0.30;0.20;;;;;;;11.69;100.00;98584.91;5008587;28;20249;-49
2024/03/31 06:31:40;;;;;;;0.30;0.20;;;;;;;11.65;100.00;98594.88;5008614;28;20214;-48
2024/03/31 06:34:06;;;;;;;0.30;0.20;;;;;;;11.67;100.00;98592.13;4992150;28;20710;-48
2024/03/31 06:36:31;;;;;;;0.30;0.20;;;;;;;11.75;100.00;98573.88;4991970;28;20699;-48
2024/03/31 06:38:57;;;;;;;0.30;0.20;;;;;;;11.65;100.00;98570.94;5005074;28;20672;-49
2024/03/31 06:41:22;;;;;;;0.30;0.20;;;;;;;11.56;100.00;98556.34;4976272;28;20274;-48
2024/03/31 06:43:48;;;;;;;0.30;0.20;;;;;;;11.34;100.00;98539.09;4975411;28;20246;-49
2024/03/31 06:46:14;;;;;;;0.30;0.20;;;;;;;11.32;100.00;98494.00;4984824;28;20219;-48
2024/03/31 06:48:39;;;;;;;0.30;0.20;;;;;;;11.39;100.00;98483.84;4979577;28;20218;-48
2024/03/31 06:51:05;;;;;;;0.30;0.20;;;;;;;11.44;100.00;98487.94;4977524;28;20223;-48
2024/03/31 06:53:30;;;;;;;0.30;0.20;;;;;;;11.62;100.00;98487.72;4973946;28;20282;-48
2024/03/31 06:55:56;;;;;;;0.30;0.20;;;;;;;11.79;100.00;98496.44;4990625;28;20238;-48
2024/03/31 06:58:21;;;;;;;0.30;0.20;;;;;;;12.06;100.00;98506.28;4991615;28;20213;-48
2024/03/31 07:00:47;;;;;;;0.30;0.20;;;;;;;12.14;100.00;98518.16;5001540;28;20686;-48
2024/03/31 07:03:13;;;;;;;0.30;0.20;;;;;;;12.59;100.00;98510.81;4989491;28;20274;-48
2024/03/31 07:05:38;;;;;;;2.40;2.30;;;;;;;12.72;100.00;98519.72;4982129;28;20238;-48
2024/03/31 07:08:04;;;;;;;0.30;0.20;;;;;;;12.95;100.00;98514.69;4991534;28;20214;-48
2024/03/31 07:10:29;;;;;;;0.30;0.20;;;;;;;12.82;100.00;98519.13;4991902;28;20264;-49
2024/03/31 07:12:55;;;;;;;0.30;0.20;;;;;;;12.91;100.00;98515.88;5007862;28;20218;-48
2024/03/31 07:15:20;;;;;;;38.83;18.57;;;;;;;13.03;100.00;98512.38;4991040;28;20615;-48
2024/03/31 07:17:48;;;;;;;0.30;0.20;;;;;;;12.91;100.00;98510.53;4990735;28;20214;-48
2024/03/31 07:20:14;;;;;;;0.30;0.20;;;;;;;12.75;100.00;98510.69;4991490;28;20211;-49
2024/03/31 07:22:40;;;;;;;0.30;0.20;;;;;;;13.08;100.00;98512.06;4984072;28;20966;-49
2024/03/31 07:25:06;;;;;;;0.30;0.20;;;;;;;12.75;100.00;98508.88;4990162;28;20448;-48
2024/03/31 07:27:31;;;;;;;0.30;0.20;;;;;;;12.93;100.00;98500.59;4978150;28;20466;-48
2024/03/31 07:29:57;;;;;;;0.30;0.20;;;;;;;12.51;100.00;98502.50;4970888;28;20241;-49
2024/03/31 07:32:23;;;;;;;0.30;0.20;;;;;;;12.49;100.00;98495.56;4980326;28;20215;-49
2024/03/31 07:34:48;;;;;;;0.30;0.20;;;;;;;12.65;100.00;98489.13;4988479;28;20238;-49
2024/03/31 07:37:13;;;;;;;0.30;0.20;;;;;;;12.18;100.00;98478.00;4981423;28;20286;-48
2024/03/31 07:39:39;;;;;;;0.30;0.20;;;;;;;12.16;100.00;98476.31;4985073;28;20222;-48
2024/03/31 07:42:05;;;;;;;0.30;0.20;;;;;;;12.74;100.00;98479.63;4989510;28;20223;-48
2024/03/31 07:44:30;;;;;;;0.30;0.20;;;;;;;12.69;100.00;98477.28;4987943;28;20265;-49
2024/03/31 07:46:56;;;;;;;0.30;0.20;;;;;;;12.95;100.00;98472.88;4991717;28;20269;-49
2024/03/31 07:49:21;;;;;;;0.30;0.20;;;;;;;13.13;100.00;98456.56;4985290;28;20215;-49
2024/03/31 07:51:47;;;;;;;0.30;0.20;;;;;;;13.30;100.00;98457.19;4992434;28;21071;-48
2024/03/31 07:54:12;;;;;;;0.30;0.20;;;;;;;13.34;100.00;98458.66;4991562;28;20230;-49
2024/03/31 07:56:38;;;;;;;0.30;0.20;;;;;;;13.14;100.00;98450.28;4992880;28;20276;-49
2024/03/31 07:59:03;;;;;;;0.40;0.20;;;;;;;13.12;100.00;98449.53;5008566;28;20587;-49
2024/03/31 08:01:29;;;;;;;0.30;0.20;;;;;;;13.15;100.00;98449.31;4993411;28;20691;-50
2024/03/31 08:03:54;;;;;;;0.30;0.20;;;;;;;13.45;100.00;98446.38;4986183;28;20733;-49
2024/03/31 08:06:21;;;;;;;0.30;0.20;;;;;;;13.30;100.00;98443.84;4990750;28;20206;-50
2024/03/31 08:08:47;;;;;;;0.30;0.20;;;;;;;13.50;100.00;98446.91;4978764;28;20231;-49
2024/03/31 08:11:12;;;;;;;0.30;0.20;;;;;;;13.42;100.00;98452.78;4990620;28;20560;-50
2024/03/31 08:13:38;;;;;;;0.30;0.20;;;;;;;13.51;100.00;98456.63;4994049;28;20305;-49
2024/03/31 08:16:04;;;;;;;0.30;0.20;;;;;;;13.52;100.00;98450.31;5010813;28;20265;-50
2024/03/31 08:18:29;;;;;;;0.30;0.20;;;;;;;13.56;100.00;98450.00;4977890;28;20211;-50
2024/03/31 08:20:55;;;;;;;0.30;0.20;;;;;;;13.47;100.00;98452.47;4977445;28;20554;-48
2024/03/31 08:23:20;;;;;;;0.30;0.20;;;;;;;13.67;100.00;98453.72;4993416;28;20309;-49
2024/03/31 08:25:52;;;;;;;0.30;0.20;;;;;;;13.60;100.00;98448.84;4992185;28;20228;-48
2024/03/31 08:28:18;;;;;;;0.30;0.20;;;;;;;13.56;100.00;98460.66;4985326;28;20605;-49
2024/03/31 08:30:43;;;;;;;0.30;0.20;;;;;;;13.66;100.00;98462.69;4994072;28;20465;-48
2024/03/31 08:33:09;;;;;;;0.30;0.20;;;;;;;13.34;100.00;98471.16;4994206;28;20210;-48
2024/03/31 08:35:34;;;;;;;0.30;0.20;;;;;;;13.55;100.00;98474.13;4983140;28;20238;-48
2024/03/31 08:38:00;;;;;;;0.30;0.20;;;;;;;13.63;100.00;98464.63;4977081;28;20219;-51
2024/03/31 08:40:30;;;;;;;0.30;0.20;;;;;;;13.79;100.00;98455.53;4982781;28;20236;-48
2024/03/31 08:43:05;;;;;;;0.30;0.20;;;;;;;13.91;100.00;98458.19;4994012;28;20214;-49
2024/03/31 08:45:31;;;;;;;0.30;0.20;;;;;;;14.23;100.00;98460.34;4981800;28;20505;-46
2024/03/31 08:47:59;;;;;;;0.30;0.20;;;;;;;14.15;100.00;98447.56;4989412;28;20967;-48
2024/03/31 08:50:25;;;;;;;0.30;0.20;;;;;;;14.15;100.00;98460.06;4996301;28;20461;-46
2024/03/31 08:52:51;;;;;;;0.30;0.20;;;;;;;14.00;100.00;98462.03;4977827;28;20461;-48
2024/03/31 08:55:17;;;;;;;0.30;0.20;;;;;;;14.05;100.00;98470.53;4992122;28;20493;-46
2024/03/31 08:57:43;;;;;;;0.30;0.20;;;;;;;14.28;100.00;98474.25;4991133;28;21189;-47
2024/03/31 09:00:09;;;;;;;0.30;0.20;;;;;;;14.21;100.00;98472.97;4998285;28;20447;-47
2024/03/31 09:02:34;;;;;;;0.30;0.20;;;;;;;14.32;100.00;98472.19;4991384;28;20219;-48
2024/03/31 09:05:01;;;;;;;0.40;0.37;;;;;;;14.48;100.00;98481.66;4988814;28;20836;-47
2024/03/31 09:07:27;;;;;;;0.30;0.20;;;;;;;14.66;100.00;98473.25;4976472;28;20223;-47
2024/03/31 09:09:52;;;;;;;0.30;0.20;;;;;;;14.52;100.00;98477.78;4992541;28;21267;-47
2024/03/31 09:12:18;;;;;;;0.30;0.20;;;;;;;14.57;100.00;98474.78;4992931;28;20246;-47
2024/03/31 09:14:43;;;;;;;0.30;0.20;;;;;;;14.56;99.61;98478.44;5009285;28;20723;-46
2024/03/31 09:17:10;;;;;;;0.30;0.20;;;;;;;14.71;99.38;98473.78;4992010;28;20238;-46
2024/03/31 09:19:36;;;;;;;0.30;0.20;;;;;;;14.88;99.80;98472.50;4980572;28;20591;-46
2024/03/31 09:22:02;;;;;;;0.30;0.20;;;;;;;15.11;99.21;98480.50;4993224;28;20469;-47
2024/03/31 09:24:30;;;;;;;0.30;0.20;;;;;;;15.25;97.51;98475.91;4992386;28;20451;-47
2024/03/31 09:26:59;;;;;;;0.30;0.20;;;;;;;15.87;96.95;98479.06;4993209;28;20436;-47
2024/03/31 09:29:27;;;;;;;0.30;0.20;;;;;;;15.58;95.99;98469.75;4993065;28;20440;-47
2024/03/31 09:32:04;;;;;;;0.30;0.20;;;;;;;15.78;96.42;98473.59;4992477;28;20454;-47
2024/03/31 09:34:29;;;;;;;0.30;0.20;;;;;;;16.10;94.79;98471.03;4973789;28;20478;-48
2024/03/31 09:36:55;;;;;;;0.30;0.20;;;;;;;16.11;94.22;98459.31;4986134;28;20500;-47
2024/03/31 09:39:20;;;;;;;0.30;0.20;;;;;;;16.46;92.78;98453.78;4991634;28;20264;-47
2024/03/31 09:41:49;;;;;;;0.30;0.20;;;;;;;16.16;92.35;98459.78;4992566;28;20214;-47
2024/03/31 09:44:15;;;;;;;0.30;0.20;;;;;;;16.18;93.42;98464.06;4988020;28;20249;-47
2024/03/31 09:46:41;;;;;;;0.30;0.20;;;;;;;15.95;92.68;98467.75;5002413;28;20823;-47
2024/03/31 09:49:10;;;;;;;0.30;0.20;;;;;;;16.06;92.63;98464.22;4979400;28;20960;-46
2024/03/31 09:51:41;;;;;;;0.30;0.20;;;;;;;15.76;94.18;98475.53;4991256;28;20210;-47
2024/03/31 09:54:12;;;;;;;0.30;0.20;;;;;;;16.03;94.71;98476.00;4963623;28;20461;-47
2024/03/31 09:56:44;;;;;;;0.30;0.20;;;;;;;15.63;94.02;98468.47;4987518;28;20995;-47
2024/03/31 09:59:11;;;;;;;0.30;0.20;;;;;;;15.91;94.56;98469.81;4978262;28;20447;-48
2024/03/31 10:01:44;;;;;;;0.30;0.20;;;;;;;15.50;94.75;98470.38;4993427;28;20437;-47
2024/03/31 10:04:16;;;;;;;0.30;0.20;;;;;;;15.76;94.95;98463.00;4992792;28;20490;-47
2024/03/31 10:06:42;;;;;;;0.30;0.20;;;;;;;15.65;94.11;98461.16;4992067;28;20922;-49
2024/03/31 10:09:08;;;;;;;0.30;0.20;;;;;;;16.48;92.13;98457.19;4992316;28;20470;-49
2024/03/31 10:11:34;;;;;;;0.30;0.20;;;;;;;16.30;92.56;98452.31;4992588;28;20933;-49
2024/03/31 10:14:00;;;;;;;0.30;0.20;;;;;;;15.96;93.13;98451.53;4992180;28;20249;-49
2024/03/31 10:16:26;;;;;;;0.30;0.20;;;;;;;16.23;92.41;98436.88;5008506;28;20234;-49
2024/03/31 10:18:55;;;;;;;0.30;0.20;;;;;;;15.92;94.92;98431.31;4980337;28;20491;-49
2024/03/31 10:21:20;;;;;;;0.30;0.20;;;;;;;16.05;93.93;98422.31;4985327;28;20222;-49
2024/03/31 10:23:49;;;;;;;0.30;0.20;;;;;;;15.84;94.31;98430.22;4984879;28;20448;-49
2024/03/31 10:26:15;;;;;;;0.30;0.20;;;;;;;16.28;93.98;98440.03;4985635;28;20234;-50
2024/03/31 10:28:42;;;;;;;0.30;0.20;;;;;;;16.06;94.75;98432.03;4985403;28;20975;-49
2024/03/31 10:31:08;;;;;;;0.30;0.20;;;;;;;16.26;92.85;98431.25;4985466;28;20207;-49
2024/03/31 10:33:34;;;;;;;0.30;0.20;;;;;;;16.69;90.09;98433.09;4995282;28;20460;-50
2024/03/31 10:36:02;;;;;;;0.30;0.20;;;;;;;16.53;90.31;98425.47;4991046;28;20965;-49
2024/03/31 10:38:29;;;;;;;0.30;0.20;;;;;;;16.70;90.79;98424.94;4991733;28;20222;-50
2024/03/31 10:40:55;;;;;;;0.93;0.93;;;;;;;16.44;92.15;98418.16;4992123;28;20460;-49
2024/03/31 10:43:21;;;;;;;0.30;0.20;;;;;;;16.48;90.99;98419.63;4991799;28;20506;-50
2024/03/31 10:45:47;;;;;;;0.30;0.20;;;;;;;16.29;92.44;98412.22;5007321;28;21034;-50
2024/03/31 10:48:12;;;;;;;0.30;0.20;;;;;;;16.44;91.65;98408.28;5008145;28;20246;-50
2024/03/31 10:50:42;;;;;;;0.30;0.20;;;;;;;16.70;92.30;98402.63;4991842;28;20749;-49
2024/03/31 10:53:09;;;;;;;0.30;0.20;;;;;;;16.95;90.75;98391.50;4991600;28;20609;-50
2024/03/31 10:55:35;;;;;;;44.27;10.97;;;;;;;17.33;89.38;98388.22;4991765;28;20502;-50
2024/03/31 10:58:01;;;;;;;0.30;0.20;;;;;;;17.08;87.64;98372.53;4991788;28;20462;-50
2024/03/31 11:00:34;;;;;;;0.30;0.20;;;;;;;17.24;90.46;98364.00;4998799;28;20213;-50
2024/03/31 11:03:06;;;;;;;0.30;0.20;;;;;;;17.01;89.95;98368.69;4983365;28;20444;-49
2024/03/31 11:05:32;;;;;;;0.30;0.20;;;;;;;17.11;90.56;98375.78;4991584;28;20817;-50
2024/03/31 11:07:59;;;;;;;0.30;0.20;;;;;;;17.48;87.97;98381.50;5008007;28;20455;-50
2024/03/31 11:10:25;;;;;;;0.30;0.20;;;;;;;17.32;88.11;98391.06;4993400;28;20226;-50
2024/03/31 11:12:51;;;;;;;0.30;0.20;;;;;;;17.34;88.16;98379.19;5011941;28;20466;-50
2024/03/31 11:15:16;;;;;;;0.30;0.20;;;;;;;16.90;88.35;98382.16;5012328;28;20648;-48
2024/03/31 11:17:43;;;;;;;0.40;0.20;;;;;;;16.55;88.62;98373.38;4993311;28;20663;-48
2024/03/31 11:20:12;;;;;;;0.67;0.67;;;;;;;16.81;89.36;98365.00;4985481;28;20229;-49
2024/03/31 11:22:38;;;;;;;0.30;0.20;;;;;;;17.33;90.06;98364.06;4995569;28;20457;-48